Time;durP1;ratioP1;P1;durP2;ratioP2;P2;SDS_P1;SDS_P2;PMS_P1;PMS_P2;Temp;Humidity;BMP_temperature;BMP_pressure;BME280_temperature;BME280_humidity;BME280_pressure;Samples;Min_cycle;Max_cycle;Signal;HPM_P1;HPM_P2
2023/12/02 00:00:14;;;;;;;;;;;;;;;18.38;63.22;96795.53;2079059;28;19970;-65
2023/12/02 00:01:16;;;;;;;;;;;;;;;18.38;63.18;96798.22;2090412;28;19952;-64
2023/12/02 00:02:17;;;;;;;;;;;;;;;18.38;63.33;96784.00;2089466;28;20404;-64
2023/12/02 00:03:18;;;;;;;;;;;;;;;18.38;63.31;96792.84;2087477;28;19928;-64
2023/12/02 00:04:19;;;;;;;;;;;;;;;18.35;62.95;96782.63;2089150;28;19924;-64
2023/12/02 00:05:21;;;;;;;;;;;;;;;18.36;63.31;96784.25;2089850;28;19937;-64
2023/12/02 00:06:22;;;;;;;;;;;;;;;18.35;63.51;96779.94;2088903;28;19928;-64
2023/12/02 00:07:24;;;;;;;;;;;;;;;18.37;63.15;96788.56;2090934;28;19982;-65
2023/12/02 00:08:24;;;;;;;;;;;;;;;18.36;63.23;96786.09;2087332;28;19932;-64
2023/12/02 00:09:26;;;;;;;;;;;;;;;18.36;63.43;96792.31;2091763;28;19928;-64
2023/12/02 00:10:27;;;;;;;;;;;;;;;18.33;63.50;96773.19;2093435;28;19931;-64
2023/12/02 00:11:28;;;;;;;;;;;;;;;18.36;63.54;96780.75;2092228;28;19936;-64
2023/12/02 00:12:29;;;;;;;;;;;;;;;18.35;63.58;96776.44;2091783;28;20303;-64
2023/12/02 00:13:31;;;;;;;;;;;;;;;18.32;63.75;96772.38;2089446;28;19942;-64
2023/12/02 00:14:31;;;;;;;;;;;;;;;18.32;63.37;96777.75;2089448;28;19940;-64
2023/12/02 00:15:34;;;;;;;;;;;;;;;18.29;63.43;96770.19;2092416;28;20106;-64
2023/12/02 00:16:35;;;;;;;;;;;;;;;18.28;63.73;96764.00;2093912;28;21407;-64
2023/12/02 00:17:37;;;;;;;;;;;;;;;18.28;63.52;96768.56;2082993;28;19981;-64
2023/12/02 00:18:37;;;;;;;;;;;;;;;18.29;63.49;96762.94;2090509;28;19975;-64
2023/12/02 00:19:39;;;;;;;;;;;;;;;18.29;63.45;96767.50;2088354;28;19963;-64
2023/12/02 00:20:39;;;;;;;;;;;;;;;18.29;63.22;96762.13;2093312;28;19925;-64
2023/12/02 00:21:41;;;;;;;;;;;;;;;18.28;63.64;96757.84;2087548;28;20288;-65
2023/12/02 00:22:42;;;;;;;;;;;;;;;18.28;63.44;96760.53;2089771;28;19929;-64
2023/12/02 00:23:43;;;;;;;;;;;;;;;18.30;63.49;96758.38;2087329;28;20479;-65
2023/12/02 00:24:44;;;;;;;;;;;;;;;18.28;63.49;96752.47;2084438;28;19925;-64
2023/12/02 00:25:46;;;;;;;;;;;;;;;18.27;63.48;96748.16;2091309;28;19978;-65
2023/12/02 00:26:46;;;;;;;;;;;;;;;18.29;63.62;96741.47;2086589;28;19977;-65
2023/12/02 00:27:48;;;;;;;;;;;;;;;18.28;63.27;96747.91;2087206;28;20005;-64
2023/12/02 00:28:48;;;;;;;;;;;;;;;18.26;63.47;96749.22;2089998;28;19978;-65
2023/12/02 00:29:50;;;;;;;;;;;;;;;18.27;63.73;96745.47;2088264;28;21430;-65
2023/12/02 00:30:52;;;;;;;;;;;;;;;18.26;63.55;96747.34;2087597;28;19990;-65
2023/12/02 00:31:54;;;;;;;;;;;;;;;18.28;63.61;96752.47;2085320;28;19924;-65
2023/12/02 00:32:54;;;;;;;;;;;;;;;18.25;63.46;96740.38;2090420;28;20404;-65
2023/12/02 00:33:57;;;;;;;;;;;;;;;18.25;63.35;96742.25;2091825;28;19924;-64
2023/12/02 00:34:57;;;;;;;;;;;;;;;18.25;63.74;96744.91;2091126;28;20016;-64
2023/12/02 00:35:59;;;;;;;;;;;;;;;18.24;63.34;96744.09;2089933;28;20448;-65
2023/12/02 00:37:00;;;;;;;;;;;;;;;18.26;63.65;96741.16;2087353;28;19983;-65
2023/12/02 00:38:02;;;;;;;;;;;;;;;18.27;63.50;96735.53;2089172;28;19951;-64
2023/12/02 00:39:03;;;;;;;;;;;;;;;18.25;63.63;96735.00;2090784;28;20303;-67
2023/12/02 00:40:06;;;;;;;;;;;;;;;18.24;63.67;96725.31;2091722;28;20311;-66
2023/12/02 00:41:08;;;;;;;;;;;;;;;18.23;63.74;96730.94;2086464;28;19943;-71
2023/12/02 00:42:11;;;;;;;;;;;;;;;18.21;63.69;96730.34;2083517;28;20395;-65
2023/12/02 00:43:11;;;;;;;;;;;;;;;18.21;63.63;96725.00;2085973;28;19933;-65
2023/12/02 00:44:13;;;;;;;;;;;;;;;18.21;63.79;96720.44;2084448;28;20249;-65
2023/12/02 00:45:14;;;;;;;;;;;;;;;18.20;63.69;96718.81;2090624;28;20474;-64
2023/12/02 00:46:18;;;;;;;;;;;;;;;18.19;63.65;96706.47;2086416;28;19971;-61
2023/12/02 00:47:19;;;;;;;;;;;;;;;18.19;63.73;96713.69;2083607;28;19933;-65
2023/12/02 00:48:20;;;;;;;;;;;;;;;18.19;63.75;96711.84;2085307;28;20348;-64
2023/12/02 00:49:21;;;;;;;;;;;;;;;18.18;63.66;96706.72;2086928;28;19932;-65
2023/12/02 00:50:24;;;;;;;;;;;;;;;18.20;63.90;96705.41;2089545;28;19924;-64
2023/12/02 00:51:24;;;;;;;;;;;;;;;18.21;63.57;96712.38;2087849;28;19933;-64
2023/12/02 00:52:25;;;;;;;;;;;;;;;18.21;63.51;96709.69;2086056;28;19932;-65
2023/12/02 00:53:27;;;;;;;;;;;;;;;18.19;63.71;96705.63;2086133;28;19932;-65
2023/12/02 00:54:27;;;;;;;;;;;;;;;18.19;63.88;96711.00;2085101;28;19928;-65
2023/12/02 00:55:29;;;;;;;;;;;;;;;18.18;63.89;96704.03;2086920;28;19960;-64
2023/12/02 00:56:30;;;;;;;;;;;;;;;18.17;63.48;96697.84;2088017;28;20208;-64
2023/12/02 00:57:31;;;;;;;;;;;;;;;18.18;63.78;96704.03;2081672;28;20039;-64
2023/12/02 00:58:32;;;;;;;;;;;;;;;18.19;63.57;96705.63;2089606;28;19975;-64
2023/12/02 00:59:34;;;;;;;;;;;;;;;18.22;63.82;96713.19;2087881;28;20368;-64
2023/12/02 01:00:34;;;;;;;;;;;;;;;18.19;63.64;96714.53;2081591;28;19932;-65
2023/12/02 01:01:37;;;;;;;;;;;;;;;18.20;63.73;96715.31;2086041;28;20002;-64
2023/12/02 01:02:38;;;;;;;;;;;;;;;18.20;63.76;96704.59;2088634;28;20017;-64
2023/12/02 01:03:39;;;;;;;;;;;;;;;18.19;63.75;96711.84;2085381;28;19990;-63
2023/12/02 01:04:40;;;;;;;;;;;;;;;18.20;63.54;96707.28;2087317;28;19924;-65
2023/12/02 01:05:42;;;;;;;;;;;;;;;18.21;63.49;96709.69;2084462;28;19952;-64
2023/12/02 01:06:42;;;;;;;;;;;;;;;18.18;63.60;96704.84;2082992;28;21883;-64
2023/12/02 01:07:44;;;;;;;;;;;;;;;18.17;63.64;96711.25;2089471;28;19932;-64
2023/12/02 01:08:45;;;;;;;;;;;;;;;18.18;63.67;96706.72;2090748;28;19928;-64
2023/12/02 01:09:46;;;;;;;;;;;;;;;18.19;63.68;96713.69;2087269;28;19935;-65
2023/12/02 01:10:47;;;;;;;;;;;;;;;18.19;63.73;96713.69;2087214;28;19929;-64
2023/12/02 01:11:49;;;;;;;;;;;;;;;18.19;63.66;96713.69;2086033;28;19960;-64
2023/12/02 01:12:49;;;;;;;;;;;;;;;18.18;63.87;96709.38;2085185;28;19990;-64
2023/12/02 01:13:51;;;;;;;;;;;;;;;18.19;63.57;96708.31;2084715;28;19928;-64
2023/12/02 01:14:52;;;;;;;;;;;;;;;18.20;63.63;96705.41;2086947;28;19928;-65
2023/12/02 01:15:52;;;;;;;;;;;;;;;18.22;63.45;96699.78;2089689;28;19968;-64
2023/12/02 01:16:55;;;;;;;;;;;;;;;18.22;63.44;96697.09;2089866;28;19973;-64
2023/12/02 01:17:56;;;;;;;;;;;;;;;18.23;63.45;96698.72;2087513;28;19981;-64
2023/12/02 01:18:58;;;;;;;;;;;;;;;18.23;63.64;96696.84;2090088;28;19924;-64
2023/12/02 01:19:59;;;;;;;;;;;;;;;18.21;63.58;96693.59;2081315;28;19925;-65
2023/12/02 01:20:59;;;;;;;;;;;;;;;18.21;63.46;96696.28;2085795;28;19970;-64
2023/12/02 01:22:01;;;;;;;;;;;;;;;18.20;63.52;96696.53;2084288;28;19924;-65
2023/12/02 01:23:02;;;;;;;;;;;;;;;18.24;63.30;96700.34;2084544;28;19940;-64
2023/12/02 01:24:04;;;;;;;;;;;;;;;18.22;63.39;96697.94;2086664;28;19929;-64
2023/12/02 01:25:05;;;;;;;;;;;;;;;18.22;63.27;96689.03;2078238;28;20499;-65
2023/12/02 01:26:08;;;;;;;;;;;;;;;18.21;63.28;96693.59;2086454;28;20294;-65
2023/12/02 01:27:08;;;;;;;;;;;;;;;18.20;63.29;96688.50;2087166;28;19931;-65
2023/12/02 01:28:11;;;;;;;;;;;;;;;18.20;63.45;96683.94;2083883;28;19989;-64
2023/12/02 01:29:12;;;;;;;;;;;;;;;18.19;63.29;96686.84;2075801;28;19925;-64
2023/12/02 01:30:15;;;;;;;;;;;;;;;18.18;63.72;96687.94;2088855;28;19979;-65
2023/12/02 01:31:16;;;;;;;;;;;;;;;18.19;63.44;96694.91;2082976;28;19973;-62
2023/12/02 01:32:19;;;;;;;;;;;;;;;18.18;63.60;96688.72;2085821;28;20071;-63
2023/12/02 01:33:20;;;;;;;;;;;;;;;18.19;63.34;96690.38;2085805;28;19977;-65
2023/12/02 01:34:22;;;;;;;;;;;;;;;18.18;63.30;96683.38;2086799;28;19999;-65
2023/12/02 01:35:22;;;;;;;;;;;;;;;18.19;63.25;96690.38;2086047;28;19964;-65
2023/12/02 01:36:24;;;;;;;;;;;;;;;18.17;63.31;96687.13;2086078;28;20315;-65
2023/12/02 01:37:25;;;;;;;;;;;;;;;18.15;63.58;96688.41;2088482;28;19971;-64
2023/12/02 01:38:27;;;;;;;;;;;;;;;18.16;63.45;96685.47;2086621;28;19929;-64
2023/12/02 01:39:27;;;;;;;;;;;;;;;18.17;63.67;96691.69;2085765;28;19928;-65
2023/12/02 01:40:29;;;;;;;;;;;;;;;18.16;63.42;96690.84;2091025;28;19935;-64
2023/12/02 01:41:31;;;;;;;;;;;;;;;18.16;63.62;96685.47;2087904;28;24146;-64
2023/12/02 01:42:33;;;;;;;;;;;;;;;18.17;63.63;96689.81;2084065;28;20016;-64
2023/12/02 01:43:34;;;;;;;;;;;;;;;18.17;63.06;96695.16;2080008;28;19961;-65
2023/12/02 01:44:35;;;;;;;;;;;;;;;18.16;63.64;96695.41;2085832;28;20005;-64
2023/12/02 01:45:36;;;;;;;;;;;;;;;18.18;63.40;96694.09;2084845;28;19999;-64
2023/12/02 01:46:38;;;;;;;;;;;;;;;18.16;63.59;96690.84;2087140;28;24636;-65
2023/12/02 01:47:42;;;;;;;;;;;;;;;18.17;63.28;96694.34;2084110;28;20401;-64
2023/12/02 01:48:44;;;;;;;;;;;;;;;18.15;63.36;96691.09;2081748;28;19932;-64
2023/12/02 01:49:45;;;;;;;;;;;;;;;18.15;63.57;96689.22;2084956;28;19994;-64
2023/12/02 01:50:47;;;;;;;;;;;;;;;18.15;63.44;96685.75;2089844;28;19964;-64
2023/12/02 01:51:48;;;;;;;;;;;;;;;18.18;63.29;96685.25;2089226;28;19928;-64
2023/12/02 01:52:50;;;;;;;;;;;;;;;18.18;63.49;96690.59;2086709;28;19925;-65
2023/12/02 01:53:50;;;;;;;;;;;;;;;18.16;63.16;96684.66;2085757;28;19981;-65
2023/12/02 01:54:52;;;;;;;;;;;;;;;18.16;63.37;96687.34;2085796;28;20595;-64
2023/12/02 01:55:53;;;;;;;;;;;;;;;18.13;63.35;96677.13;2084059;28;19978;-64
2023/12/02 01:56:54;;;;;;;;;;;;;;;18.14;63.71;96684.13;2084417;28;19936;-65
2023/12/02 01:57:55;;;;;;;;;;;;;;;18.14;63.58;96681.44;2087421;28;19929;-65
2023/12/02 01:58:57;;;;;;;;;;;;;;;18.14;63.30;96689.50;2076290;28;19931;-64
2023/12/02 01:59:57;;;;;;;;;;;;;;;18.14;63.47;96690.31;2085476;28;19929;-65
2023/12/02 02:00:59;;;;;;;;;;;;;;;18.12;63.29;96697.78;2085017;28;19986;-64
2023/12/02 02:02:00;;;;;;;;;;;;;;;18.12;63.34;96678.19;2078300;28;19940;-67
2023/12/02 02:03:03;;;;;;;;;;;;;;;18.13;63.34;96695.91;2086184;28;20023;-68
2023/12/02 02:04:04;;;;;;;;;;;;;;;18.11;63.54;96696.16;2081175;28;20679;-65
2023/12/02 02:05:07;;;;;;;;;;;;;;;18.11;63.52;96706.06;2084163;28;19967;-66
2023/12/02 02:06:08;;;;;;;;;;;;;;;18.12;63.59;96705.81;2088847;28;19929;-65
2023/12/02 02:07:10;;;;;;;;;;;;;;;18.11;63.55;96698.84;2091306;28;20002;-64
2023/12/02 02:08:12;;;;;;;;;;;;;;;18.10;63.74;96697.19;2087619;28;19933;-64
2023/12/02 02:09:12;;;;;;;;;;;;;;;18.06;63.69;96688.84;2085628;28;19972;-65
2023/12/02 02:10:14;;;;;;;;;;;;;;;18.05;63.57;96689.91;2086066;28;20419;-65
2023/12/02 02:11:15;;;;;;;;;;;;;;;18.08;63.38;96678.69;2087046;28;20902;-64
2023/12/02 02:12:18;;;;;;;;;;;;;;;18.06;63.62;96680.00;2081776;28;20031;-64
2023/12/02 02:13:19;;;;;;;;;;;;;;;18.07;63.71;96676.25;2087319;28;19932;-65
2023/12/02 02:14:21;;;;;;;;;;;;;;;18.06;63.60;96675.44;2086879;28;19963;-64
2023/12/02 02:15:22;;;;;;;;;;;;;;;18.09;63.76;96674.13;2090289;28;20015;-67
2023/12/02 02:16:23;;;;;;;;;;;;;;;18.09;63.66;96669.56;2089997;28;19948;-65
2023/12/02 02:17:24;;;;;;;;;;;;;;;18.07;63.56;96666.31;2090009;28;19925;-65
2023/12/02 02:18:29;;;;;;;;;;;;;;;18.07;63.58;96662.81;2087655;28;19974;-65
2023/12/02 02:19:31;;;;;;;;;;;;;;;18.08;63.36;96661.78;2089280;28;20013;-64
2023/12/02 02:20:32;;;;;;;;;;;;;;;18.07;63.40;96654.78;2086551;28;19935;-65
2023/12/02 02:21:34;;;;;;;;;;;;;;;18.07;63.55;96652.09;2087782;28;19932;-65
2023/12/02 02:22:35;;;;;;;;;;;;;;;18.07;63.62;96650.22;2078609;28;19932;-65
2023/12/02 02:23:37;;;;;;;;;;;;;;;18.06;63.62;96650.47;2084393;28;20488;-65
2023/12/02 02:24:37;;;;;;;;;;;;;;;18.05;63.52;96641.63;2086404;28;19973;-65
2023/12/02 02:25:39;;;;;;;;;;;;;;;18.05;63.57;96652.34;2087341;28;19998;-64
2023/12/02 02:26:40;;;;;;;;;;;;;;;18.03;63.35;96649.09;2076793;28;19925;-65
2023/12/02 02:27:41;;;;;;;;;;;;;;;18.03;63.67;96643.75;2085352;28;19976;-64
2023/12/02 02:28:42;;;;;;;;;;;;;;;18.04;63.62;96649.91;2086120;28;19940;-65
2023/12/02 02:29:43;;;;;;;;;;;;;;;18.04;63.64;96637.31;2088459;28;19933;-65
2023/12/02 02:30:44;;;;;;;;;;;;;;;18.05;63.60;96646.16;2092411;28;19936;-65
2023/12/02 02:31:45;;;;;;;;;;;;;;;18.02;63.60;96642.09;2087889;28;21272;-65
2023/12/02 02:32:46;;;;;;;;;;;;;;;18.05;63.46;96646.16;2078585;28;21650;-65
2023/12/02 02:33:47;;;;;;;;;;;;;;;18.04;63.32;96645.34;2088145;28;20781;-65
2023/12/02 02:34:49;;;;;;;;;;;;;;;18.05;63.52;96646.16;2088420;28;20017;-65
2023/12/02 02:35:49;;;;;;;;;;;;;;;18.03;63.64;96634.88;2087514;28;19928;-65
2023/12/02 02:36:52;;;;;;;;;;;;;;;18.04;63.39;96631.13;2083230;28;20481;-65
2023/12/02 02:37:53;;;;;;;;;;;;;;;18.04;63.57;96633.81;2087265;28;19936;-64
2023/12/02 02:38:55;;;;;;;;;;;;;;;18.03;63.21;96626.84;2087066;28;20794;-65
2023/12/02 02:39:56;;;;;;;;;;;;;;;18.01;63.40;96619.03;2085900;28;19990;-65
2023/12/02 02:40:57;;;;;;;;;;;;;;;18.00;63.46;96622.78;2074857;28;20461;-65
2023/12/02 02:41:58;;;;;;;;;;;;;;;18.03;63.41;96608.88;2085464;28;20456;-65
2023/12/02 02:43:00;;;;;;;;;;;;;;;18.03;63.34;96622.28;2085194;28;19986;-65
2023/12/02 02:44:01;;;;;;;;;;;;;;;18.00;63.55;96617.41;2086592;28;19972;-65
2023/12/02 02:45:03;;;;;;;;;;;;;;;18.01;63.62;96612.84;2087200;28;19924;-65
2023/12/02 02:46:04;;;;;;;;;;;;;;;18.01;63.63;96627.06;2086805;28;19990;-65
2023/12/02 02:47:06;;;;;;;;;;;;;;;18.00;63.56;96628.16;2086602;28;20396;-65
2023/12/02 02:48:07;;;;;;;;;;;;;;;18.01;63.63;96619.03;2083855;28;19932;-65
2023/12/02 02:49:09;;;;;;;;;;;;;;;17.99;63.67;96625.69;2070222;28;19954;-65
2023/12/02 02:50:10;;;;;;;;;;;;;;;17.99;63.59;96617.66;2084043;28;20015;-65
2023/12/02 02:51:11;;;;;;;;;;;;;;;17.99;63.62;96615.78;2083707;28;20505;-65
2023/12/02 02:52:14;;;;;;;;;;;;;;;18.02;63.40;96620.63;2082662;28;19974;-65
2023/12/02 02:53:15;;;;;;;;;;;;;;;17.99;63.46;96618.47;2085566;28;19958;-65
2023/12/02 02:54:17;;;;;;;;;;;;;;;18.01;63.56;96626.28;2087437;28;19955;-65
2023/12/02 02:55:18;;;;;;;;;;;;;;;17.98;63.74;96624.88;2087942;28;20027;-64
2023/12/02 02:56:20;;;;;;;;;;;;;;;17.99;63.64;96618.47;2089687;28;19928;-64
2023/12/02 02:57:22;;;;;;;;;;;;;;;18.01;63.55;96623.59;2088617;28;20420;-65
2023/12/02 02:58:24;;;;;;;;;;;;;;;17.98;63.62;96616.84;2083572;28;20489;-65
2023/12/02 02:59:24;;;;;;;;;;;;;;;17.99;63.66;96623.00;2087631;28;20312;-65
2023/12/02 03:00:26;;;;;;;;;;;;;;;17.96;63.50;96627.00;2088982;28;19928;-65
2023/12/02 03:01:27;;;;;;;;;;;;;;;17.98;63.38;96619.53;2091995;28;19932;-65
2023/12/02 03:02:28;;;;;;;;;;;;;;;17.97;63.42;96617.91;2084514;28;20747;-65
2023/12/02 03:03:29;;;;;;;;;;;;;;;17.97;63.42;96615.22;2081596;28;19932;-65
2023/12/02 03:04:30;;;;;;;;;;;;;;;17.96;63.59;96616.28;2080946;28;20415;-66
2023/12/02 03:05:32;;;;;;;;;;;;;;;17.97;63.71;96627.81;2085537;28;19929;-64
2023/12/02 03:06:32;;;;;;;;;;;;;;;17.97;63.45;96622.44;2088249;28;19932;-65
2023/12/02 03:07:34;;;;;;;;;;;;;;;17.95;63.60;96630.75;2088087;28;20605;-64
2023/12/02 03:08:36;;;;;;;;;;;;;;;17.96;63.58;96637.72;2087379;28;19944;-64
2023/12/02 03:09:36;;;;;;;;;;;;;;;17.96;63.51;96637.72;2086396;28;19929;-65
2023/12/02 03:10:38;;;;;;;;;;;;;;;17.93;63.73;96635.53;2088447;28;19936;-64
2023/12/02 03:11:39;;;;;;;;;;;;;;;17.93;63.57;96640.91;2086246;28;20304;-64
2023/12/02 03:12:41;;;;;;;;;;;;;;;17.94;63.80;96639.03;2085972;28;20019;-65
2023/12/02 03:13:41;;;;;;;;;;;;;;;17.94;63.45;96631.81;2088509;28;19978;-64
2023/12/02 03:14:43;;;;;;;;;;;;;;;17.93;63.57;96622.13;2087547;28;19945;-64
2023/12/02 03:15:43;;;;;;;;;;;;;;;17.92;63.68;96603.63;2084083;28;19925;-64
2023/12/02 03:16:45;;;;;;;;;;;;;;;17.92;63.63;96600.94;2084515;28;19958;-64
2023/12/02 03:17:46;;;;;;;;;;;;;;;17.92;63.60;96609.00;2087535;28;20462;-66
2023/12/02 03:18:48;;;;;;;;;;;;;;;17.91;63.89;96601.97;2084538;28;19985;-64
2023/12/02 03:19:49;;;;;;;;;;;;;;;17.91;63.75;96597.44;2089955;28;19956;-64
2023/12/02 03:20:50;;;;;;;;;;;;;;;17.90;63.59;96574.34;2092678;28;19929;-64
2023/12/02 03:21:51;;;;;;;;;;;;;;;17.92;63.63;96582.16;2088411;28;19925;-64
2023/12/02 03:22:53;;;;;;;;;;;;;;;17.90;63.50;96574.34;2081659;28;19933;-65
2023/12/02 03:23:54;;;;;;;;;;;;;;;17.90;63.64;96574.34;2086330;28;20544;-64
2023/12/02 03:24:55;;;;;;;;;;;;;;;17.91;63.96;96567.94;2086457;28;20418;-65
2023/12/02 03:25:57;;;;;;;;;;;;;;;17.93;63.55;96560.44;2087065;28;19963;-64
2023/12/02 03:26:57;;;;;;;;;;;;;;;17.91;63.57;96562.56;2081381;28;20671;-64
2023/12/02 03:27:58;;;;;;;;;;;;;;;17.93;63.79;96568.50;2084454;28;19970;-65
2023/12/02 03:29:00;;;;;;;;;;;;;;;17.94;63.62;96574.66;2083218;28;19932;-64
2023/12/02 03:30:01;;;;;;;;;;;;;;;17.91;63.94;96575.16;2090463;28;19972;-70
2023/12/02 03:31:02;;;;;;;;;;;;;;;17.89;63.69;96567.38;2090790;28;20319;-67
2023/12/02 03:32:04;;;;;;;;;;;;;;;17.91;63.61;96575.97;2086710;28;20515;-69
2023/12/02 03:33:06;;;;;;;;;;;;;;;17.92;63.72;96566.88;2087067;28;19940;-70
2023/12/02 03:34:07;;;;;;;;;;;;;;;17.88;63.73;96565.75;2086117;28;19932;-65
2023/12/02 03:35:08;;;;;;;;;;;;;;;17.90;63.72;96576.25;2087479;28;20399;-67
2023/12/02 03:36:11;;;;;;;;;;;;;;;17.88;63.60;96568.44;2091780;28;19931;-65
2023/12/02 03:37:12;;;;;;;;;;;;;;;17.86;63.90;96573.25;2086973;28;19958;-65
2023/12/02 03:38:15;;;;;;;;;;;;;;;17.89;63.85;96562.03;2083044;28;19929;-64
2023/12/02 03:39:16;;;;;;;;;;;;;;;17.88;63.54;96556.91;2087535;28;19928;-65
2023/12/02 03:40:18;;;;;;;;;;;;;;;17.89;63.84;96558.53;2086251;28;19925;-63
2023/12/02 03:41:19;;;;;;;;;;;;;;;17.86;63.84;96552.59;2089539;28;19960;-68
2023/12/02 03:42:21;;;;;;;;;;;;;;;17.89;63.77;96553.16;2075467;28;19925;-65
2023/12/02 03:43:22;;;;;;;;;;;;;;;17.89;63.53;96551.28;2090027;28;19924;-64
2023/12/02 03:44:24;;;;;;;;;;;;;;;17.86;63.85;96552.59;2083417;28;20043;-66
2023/12/02 03:45:26;;;;;;;;;;;;;;;17.88;63.70;96565.75;2089970;28;19947;-65
2023/12/02 03:46:28;;;;;;;;;;;;;;;17.88;63.75;96548.84;2085887;28;19935;-65
2023/12/02 03:47:29;;;;;;;;;;;;;;;17.87;63.72;96542.69;2090132;28;19929;-64
2023/12/02 03:48:29;;;;;;;;;;;;;;;17.87;63.73;96542.69;2088617;28;19955;-63
2023/12/02 03:49:31;;;;;;;;;;;;;;;17.86;63.76;96543.75;2089957;28;19925;-64
2023/12/02 03:50:32;;;;;;;;;;;;;;;17.85;63.79;96534.06;2092074;28;19924;-64
2023/12/02 03:51:33;;;;;;;;;;;;;;;17.84;63.70;96535.13;2089320;28;19963;-64
2023/12/02 03:52:34;;;;;;;;;;;;;;;17.85;63.85;96536.75;2085051;28;19928;-65
2023/12/02 03:53:37;;;;;;;;;;;;;;;17.88;63.59;96536.25;2082661;28;24673;-65
2023/12/02 03:54:38;;;;;;;;;;;;;;;17.86;63.54;96527.66;2081349;28;19933;-65
2023/12/02 03:55:40;;;;;;;;;;;;;;;17.83;63.82;96520.13;2090273;28;19971;-64
2023/12/02 03:56:40;;;;;;;;;;;;;;;17.85;63.80;96526.03;2086158;28;19936;-64
2023/12/02 03:57:42;;;;;;;;;;;;;;;17.85;63.77;96528.69;2089549;28;19935;-64
2023/12/02 03:58:42;;;;;;;;;;;;;;;17.83;63.69;96525.47;2083368;28;20390;-64
2023/12/02 03:59:44;;;;;;;;;;;;;;;17.84;63.92;96521.72;2083985;28;20409;-64
2023/12/02 04:00:46;;;;;;;;;;;;;;;17.84;63.65;96537.81;2087239;28;19933;-64
2023/12/02 04:01:48;;;;;;;;;;;;;;;17.85;63.46;96539.44;2080408;28;20045;-64
2023/12/02 04:02:48;;;;;;;;;;;;;;;17.84;63.66;96552.03;2080967;28;20435;-64
2023/12/02 04:03:50;;;;;;;;;;;;;;;17.85;63.81;96555.53;2085523;28;19931;-65
2023/12/02 04:04:51;;;;;;;;;;;;;;;17.84;63.93;96540.50;2087218;28;19932;-64
2023/12/02 04:05:53;;;;;;;;;;;;;;;17.85;63.80;96547.47;2085070;28;19960;-64
2023/12/02 04:06:54;;;;;;;;;;;;;;;17.83;63.56;96561.16;2084002;28;20826;-65
2023/12/02 04:07:55;;;;;;;;;;;;;;;17.82;63.88;96548.78;2083765;28;19932;-65
2023/12/02 04:08:57;;;;;;;;;;;;;;;17.80;63.81;96556.28;2081907;28;20906;-64
2023/12/02 04:09:58;;;;;;;;;;;;;;;17.83;63.59;96557.66;2087682;28;20059;-64
2023/12/02 04:10:59;;;;;;;;;;;;;;;17.84;63.66;96552.03;2086903;28;19928;-64
2023/12/02 04:12:00;;;;;;;;;;;;;;;17.83;63.67;96563.81;2082639;28;20422;-64
2023/12/02 04:13:02;;;;;;;;;;;;;;;17.84;63.70;96575.38;2081415;28;19932;-64
2023/12/02 04:14:03;;;;;;;;;;;;;;;17.82;63.58;96550.66;2090062;28;21356;-64
2023/12/02 04:15:06;;;;;;;;;;;;;;;17.83;63.68;96554.97;2084752;28;19932;-64
2023/12/02 04:16:07;;;;;;;;;;;;;;;17.80;63.82;96539.34;2086900;28;20410;-64
2023/12/02 04:17:09;;;;;;;;;;;;;;;17.81;63.48;96547.16;2082720;28;19932;-65
2023/12/02 04:18:10;;;;;;;;;;;;;;;17.80;63.57;96547.41;2090141;28;20359;-64
2023/12/02 04:19:12;;;;;;;;;;;;;;;17.82;64.04;96556.03;2088767;28;19929;-64
2023/12/02 04:20:15;;;;;;;;;;;;;;;17.80;63.99;96561.66;2081941;28;20545;-64
2023/12/02 04:21:17;;;;;;;;;;;;;;;17.81;63.77;96568.63;2084180;28;19933;-63
2023/12/02 04:22:21;;;;;;;;;;;;;;;17.79;63.80;96543.91;2085857;28;19924;-64
2023/12/02 04:23:23;;;;;;;;;;;;;;;17.79;63.71;96553.84;2089152;28;19990;-64
2023/12/02 04:24:25;;;;;;;;;;;;;;;17.81;63.95;96549.84;2089788;28;19971;-64
2023/12/02 04:25:27;;;;;;;;;;;;;;;17.78;63.92;96549.50;2086267;28;20002;-64
2023/12/02 04:26:28;;;;;;;;;;;;;;;17.78;63.80;96555.72;2085606;28;19970;-64
2023/12/02 04:27:29;;;;;;;;;;;;;;;17.80;63.73;96567.00;2084540;28;20689;-64
2023/12/02 04:28:30;;;;;;;;;;;;;;;17.78;63.76;96557.56;2077923;28;19986;-64
2023/12/02 04:29:32;;;;;;;;;;;;;;;17.79;63.84;96548.47;2086178;28;19924;-64
2023/12/02 04:30:33;;;;;;;;;;;;;;;17.79;63.88;96553.84;2087303;28;20392;-64
2023/12/02 04:31:35;;;;;;;;;;;;;;;17.78;63.79;96554.88;2085521;28;19924;-64
2023/12/02 04:32:35;;;;;;;;;;;;;;;17.75;63.79;96563.41;2086417;28;19932;-64
2023/12/02 04:33:36;;;;;;;;;;;;;;;17.76;63.77;96573.06;2083686;28;19935;-64
2023/12/02 04:34:38;;;;;;;;;;;;;;;17.78;63.91;96577.16;2085431;28;20345;-64
2023/12/02 04:35:38;;;;;;;;;;;;;;;17.80;63.63;96590.31;2090079;28;19932;-66
2023/12/02 04:36:43;;;;;;;;;;;;;;;17.78;63.89;96600.47;2083582;28;20350;-64
2023/12/02 04:37:44;;;;;;;;;;;;;;;17.80;63.91;96607.22;2084988;28;19932;-64
2023/12/02 04:38:45;;;;;;;;;;;;;;;17.77;63.96;96613.03;2081035;28;19933;-64
2023/12/02 04:39:48;;;;;;;;;;;;;;;17.77;63.79;96621.06;2088611;28;19975;-65
2023/12/02 04:40:49;;;;;;;;;;;;;;;17.76;63.69;96610.63;2082194;28;19937;-64
2023/12/02 04:41:51;;;;;;;;;;;;;;;17.77;63.74;96612.22;2086047;28;19932;-64
2023/12/02 04:42:51;;;;;;;;;;;;;;;17.76;63.87;96605.25;2082719;28;19925;-65
2023/12/02 04:43:52;;;;;;;;;;;;;;;17.76;63.83;96608.75;2084346;28;19971;-64
2023/12/02 04:44:54;;;;;;;;;;;;;;;17.76;63.56;96606.06;2085097;28;19939;-64
2023/12/02 04:45:54;;;;;;;;;;;;;;;17.77;63.86;96606.88;2084797;28;19933;-64
2023/12/02 04:46:56;;;;;;;;;;;;;;;17.78;63.63;96609.34;2084637;28;22540;-64
2023/12/02 04:47:57;;;;;;;;;;;;;;;17.78;63.79;96603.13;2084652;28;20737;-64
2023/12/02 04:48:58;;;;;;;;;;;;;;;17.78;63.72;96603.13;2087020;28;20388;-64
2023/12/02 04:49:59;;;;;;;;;;;;;;;17.76;63.73;96608.75;2086119;28;19928;-64
2023/12/02 04:51:01;;;;;;;;;;;;;;;17.76;63.74;96589.16;2086343;28;20023;-64
2023/12/02 04:52:01;;;;;;;;;;;;;;;17.76;63.61;96595.34;2085078;28;19928;-63
2023/12/02 04:53:02;;;;;;;;;;;;;;;17.77;63.73;96588.09;2079579;28;20315;-64
2023/12/02 04:54:04;;;;;;;;;;;;;;;17.77;63.86;96585.41;2075870;28;19983;-64
2023/12/02 04:55:07;;;;;;;;;;;;;;;17.78;63.70;96597.78;2086290;28;19932;-64
2023/12/02 04:56:09;;;;;;;;;;;;;;;17.78;63.51;96593.25;2087575;28;19929;-65
2023/12/02 04:57:11;;;;;;;;;;;;;;;17.76;63.77;96587.28;2087529;28;20015;-65
2023/12/02 04:58:13;;;;;;;;;;;;;;;17.77;63.76;96585.41;2086403;28;20648;-64
2023/12/02 04:59:13;;;;;;;;;;;;;;;17.74;63.62;96585.91;2084479;28;19925;-64
2023/12/02 05:00:16;;;;;;;;;;;;;;;17.76;63.72;96589.16;2088289;28;20404;-64
2023/12/02 05:01:18;;;;;;;;;;;;;;;17.74;63.67;96591.28;2083868;28;19933;-65
2023/12/02 05:02:20;;;;;;;;;;;;;;;17.74;63.71;96585.91;2088339;28;19943;-65
2023/12/02 05:03:23;;;;;;;;;;;;;;;17.73;64.00;96589.66;2085430;28;19928;-63
2023/12/02 05:04:25;;;;;;;;;;;;;;;17.73;63.59;96578.94;2087422;28;19931;-64
2023/12/02 05:05:26;;;;;;;;;;;;;;;17.72;63.77;96586.19;2089847;28;19959;-64
2023/12/02 05:06:28;;;;;;;;;;;;;;;17.72;63.70;96588.84;2087140;28;19928;-64
2023/12/02 05:07:28;;;;;;;;;;;;;;;17.72;63.78;96591.53;2089250;28;19928;-65
2023/12/02 05:08:30;;;;;;;;;;;;;;;17.72;63.73;96594.22;2085841;28;19975;-64
2023/12/02 05:09:30;;;;;;;;;;;;;;;17.73;63.81;96587.78;2089457;28;19928;-64
2023/12/02 05:10:33;;;;;;;;;;;;;;;17.72;63.93;96588.03;2090409;28;20571;-64
2023/12/02 05:11:34;;;;;;;;;;;;;;;17.74;63.98;96580.53;2081162;28;20672;-64
2023/12/02 05:12:36;;;;;;;;;;;;;;;17.71;63.90;96586.41;2085201;28;20073;-64
2023/12/02 05:13:37;;;;;;;;;;;;;;;17.71;63.89;96587.22;2086178;28;19939;-64
2023/12/02 05:14:38;;;;;;;;;;;;;;;17.72;63.88;96590.69;2085491;28;19936;-65
2023/12/02 05:15:40;;;;;;;;;;;;;;;17.72;63.64;96593.38;2083391;28;20384;-64
2023/12/02 05:16:41;;;;;;;;;;;;;;;17.71;63.78;96583.72;2083142;28;19929;-65
2023/12/02 05:17:43;;;;;;;;;;;;;;;17.73;63.89;96595.03;2087874;28;19924;-65
2023/12/02 05:18:44;;;;;;;;;;;;;;;17.73;63.56;96589.66;2084585;28;19932;-64
2023/12/02 05:19:46;;;;;;;;;;;;;;;17.72;63.68;96577.28;2089212;28;19936;-65